sensor_id;sensor_type;location;lat;lon;timestamp;pressure;altitude;pressure_sealevel;temperature;humidity
12213;BME280;6169;44.158;22.788;2023-05-09T00:03:24;101742.13;;;14.87;61.02
12213;BME280;6169;44.158;22.788;2023-05-09T00:08:27;101744.63;;;14.88;61.62
12213;BME280;6169;44.158;22.788;2023-05-09T00:13:30;101742.50;;;15.31;60.31
12213;BME280;6169;44.158;22.788;2023-05-09T00:18:32;101739.53;;;14.68;61.26
12213;BME280;6169;44.158;22.788;2023-05-09T00:23:37;101746.94;;;14.14;64.52
12213;BME280;6169;44.158;22.788;2023-05-09T00:28:40;101749.84;;;14.43;63.87
12213;BME280;6169;44.158;22.788;2023-05-09T00:33:42;101751.38;;;14.15;62.87
12213;BME280;6169;44.158;22.788;2023-05-09T00:38:46;101745.66;;;14.17;63.56
12213;BME280;6169;44.158;22.788;2023-05-09T00:43:48;101748.28;;;13.51;65.16
12213;BME280;6169;44.158;22.788;2023-05-09T00:48:50;101755.41;;;13.52;65.89
12213;BME280;6169;44.158;22.788;2023-05-09T00:53:54;101755.56;;;14.41;62.48
12213;BME280;6169;44.158;22.788;2023-05-09T00:58:57;101759.63;;;13.67;63.58
12213;BME280;6169;44.158;22.788;2023-05-09T01:03:59;101759.63;;;13.67;64.55
12213;BME280;6169;44.158;22.788;2023-05-09T01:09:07;101762.97;;;13.99;64.40
12213;BME280;6169;44.158;22.788;2023-05-09T01:14:19;101767.81;;;13.67;64.39
12213;BME280;6169;44.158;22.788;2023-05-09T01:19:39;101765.56;;;13.33;65.25
12213;BME280;6169;44.158;22.788;2023-05-09T01:25:05;101767.59;;;13.87;63.44
12213;BME280;6169;44.158;22.788;2023-05-09T01:30:15;101774.69;;;14.18;63.50
12213;BME280;6169;44.158;22.788;2023-05-09T01:35:20;101774.44;;;14.31;63.81
12213;BME280;6169;44.158;22.788;2023-05-09T01:40:28;101770.25;;;13.26;65.04
12213;BME280;6169;44.158;22.788;2023-05-09T01:45:33;101774.13;;;13.00;66.47
12213;BME280;6169;44.158;22.788;2023-05-09T01:50:36;101776.84;;;12.82;66.97
12213;BME280;6169;44.158;22.788;2023-05-09T01:55:42;101778.94;;;13.05;66.30
12213;BME280;6169;44.158;22.788;2023-05-09T02:00:47;101772.38;;;12.62;67.86
12213;BME280;6169;44.158;22.788;2023-05-09T02:05:49;101773.75;;;13.64;66.80
12213;BME280;6169;44.158;22.788;2023-05-09T02:10:52;101776.03;;;13.97;63.78
12213;BME280;6169;44.158;22.788;2023-05-09T02:15:56;101769.97;;;13.65;63.72
12213;BME280;6169;44.158;22.788;2023-05-09T02:20:58;101764.72;;;13.33;64.36
12213;BME280;6169;44.158;22.788;2023-05-09T02:26:01;101775.28;;;13.59;63.77
12213;BME280;6169;44.158;22.788;2023-05-09T02:31:07;101773.13;;;13.80;63.22
12213;BME280;6169;44.158;22.788;2023-05-09T02:36:12;101775.19;;;13.66;63.24
12213;BME280;6169;44.158;22.788;2023-05-09T02:41:15;101774.16;;;13.67;64.94
12213;BME280;6169;44.158;22.788;2023-05-09T02:46:19;101762.53;;;13.23;64.36
12213;BME280;6169;44.158;22.788;2023-05-09T02:51:21;101778.50;;;13.38;66.94
12213;BME280;6169;44.158;22.788;2023-05-09T02:56:23;101775.91;;;13.62;64.84
12213;BME280;6169;44.158;22.788;2023-05-09T03:01:27;101773.63;;;13.58;63.85
12213;BME280;6169;44.158;22.788;2023-05-09T03:06:29;101772.06;;;13.51;63.76
12213;BME280;6169;44.158;22.788;2023-05-09T03:11:31;101776.38;;;12.85;65.88
12213;BME280;6169;44.158;22.788;2023-05-09T03:16:35;101789.31;;;12.71;66.63
12213;BME280;6169;44.158;22.788;2023-05-09T03:21:37;101795.97;;;13.19;64.99
12213;BME280;6169;44.158;22.788;2023-05-09T03:26:40;101800.66;;;12.93;65.61
12213;BME280;6169;44.158;22.788;2023-05-09T03:31:43;101807.94;;;13.54;63.90
12213;BME280;6169;44.158;22.788;2023-05-09T03:36:46;101817.00;;;13.36;64.08
12213;BME280;6169;44.158;22.788;2023-05-09T03:41:48;101817.81;;;13.00;64.67
12213;BME280;6169;44.158;22.788;2023-05-09T03:46:52;101819.66;;;13.25;64.48
12213;BME280;6169;44.158;22.788;2023-05-09T03:51:54;101826.69;;;13.51;63.99
12213;BME280;6169;44.158;22.788;2023-05-09T03:56:56;101833.03;;;12.89;65.46
12213;BME280;6169;44.158;22.788;2023-05-09T04:02:00;101835.94;;;13.31;63.88
12213;BME280;6169;44.158;22.788;2023-05-09T04:07:02;101840.72;;;13.73;63.46
12213;BME280;6169;44.158;22.788;2023-05-09T04:12:05;101845.41;;;12.92;64.11
12213;BME280;6169;44.158;22.788;2023-05-09T04:17:09;101847.72;;;12.63;65.81
12213;BME280;6169;44.158;22.788;2023-05-09T04:22:11;101848.38;;;13.09;64.42
12213;BME280;6169;44.158;22.788;2023-05-09T04:27:13;101850.69;;;13.30;64.20
12213;BME280;6169;44.158;22.788;2023-05-09T04:32:17;101850.78;;;13.72;61.88
12213;BME280;6169;44.158;22.788;2023-05-09T04:37:20;101863.13;;;12.83;64.80
12213;BME280;6169;44.158;22.788;2023-05-09T04:42:22;101859.31;;;13.09;64.02
12213;BME280;6169;44.158;22.788;2023-05-09T04:47:26;101859.78;;;12.81;64.80
12213;BME280;6169;44.158;22.788;2023-05-09T04:52:28;101869.09;;;12.41;64.52
12213;BME280;6169;44.158;22.788;2023-05-09T04:57:30;101877.16;;;12.86;63.50
12213;BME280;6169;44.158;22.788;2023-05-09T05:02:34;101872.41;;;12.75;64.16
12213;BME280;6169;44.158;22.788;2023-05-09T05:07:36;101866.31;;;13.42;64.10
12213;BME280;6169;44.158;22.788;2023-05-09T05:12:38;101862.66;;;13.11;61.96
12213;BME280;6169;44.158;22.788;2023-05-09T05:17:42;101873.31;;;12.62;63.61
12213;BME280;6169;44.158;22.788;2023-05-09T05:22:44;101863.13;;;13.81;60.75
12213;BME280;6169;44.158;22.788;2023-05-09T05:27:46;101861.94;;;13.15;60.98
12213;BME280;6169;44.158;22.788;2023-05-09T05:32:50;101867.66;;;13.14;62.81
12213;BME280;6169;44.158;22.788;2023-05-09T05:37:52;101847.63;;;13.38;60.90
12213;BME280;6169;44.158;22.788;2023-05-09T05:42:55;101854.97;;;13.75;60.19
12213;BME280;6169;44.158;22.788;2023-05-09T05:47:58;101888.84;;;13.74;59.47
12213;BME280;6169;44.158;22.788;2023-05-09T05:53:02;101891.41;;;14.17;58.73
12213;BME280;6169;44.158;22.788;2023-05-09T05:58:04;101888.53;;;13.45;60.76
12213;BME280;6169;44.158;22.788;2023-05-09T06:03:07;101901.22;;;14.25;58.74
12213;BME280;6169;44.158;22.788;2023-05-09T06:08:13;101901.38;;;13.81;59.29
12213;BME280;6169;44.158;22.788;2023-05-09T06:13:15;101898.63;;;13.45;60.60
12213;BME280;6169;44.158;22.788;2023-05-09T06:18:19;101898.84;;;13.43;61.06
12213;BME280;6169;44.158;22.788;2023-05-09T06:23:21;101888.69;;;12.88;62.57
12213;BME280;6169;44.158;22.788;2023-05-09T06:28:23;101891.53;;;13.19;61.46
12213;BME280;6169;44.158;22.788;2023-05-09T06:33:27;101903.72;;;13.59;62.15
12213;BME280;6169;44.158;22.788;2023-05-09T06:38:30;101907.59;;;13.33;60.66
12213;BME280;6169;44.158;22.788;2023-05-09T06:43:32;101895.53;;;13.78;60.47
12213;BME280;6169;44.158;22.788;2023-05-09T06:48:35;101903.09;;;12.96;61.85
12213;BME280;6169;44.158;22.788;2023-05-09T06:53:38;101902.06;;;13.95;60.79
12213;BME280;6169;44.158;22.788;2023-05-09T06:58:40;101899.31;;;13.22;60.63
12213;BME280;6169;44.158;22.788;2023-05-09T07:03:43;101892.19;;;13.39;60.03
12213;BME280;6169;44.158;22.788;2023-05-09T07:08:47;101888.81;;;13.19;60.76
12213;BME280;6169;44.158;22.788;2023-05-09T07:13:49;101886.22;;;13.05;61.02
12213;BME280;6169;44.158;22.788;2023-05-09T07:18:52;101895.06;;;13.01;61.80
12213;BME280;6169;44.158;22.788;2023-05-09T07:23:55;101900.75;;;12.74;62.78
12213;BME280;6169;44.158;22.788;2023-05-09T07:28:57;101905.59;;;12.72;63.13
12213;BME280;6169;44.158;22.788;2023-05-09T07:34:01;101897.69;;;13.32;63.97
12213;BME280;6169;44.158;22.788;2023-05-09T07:39:03;101895.88;;;13.26;62.85
12213;BME280;6169;44.158;22.788;2023-05-09T07:44:05;101897.88;;;13.56;60.34
12213;BME280;6169;44.158;22.788;2023-05-09T07:49:10;101905.91;;;12.57;63.01
12213;BME280;6169;44.158;22.788;2023-05-09T07:54:12;101902.94;;;13.89;61.28
12213;BME280;6169;44.158;22.788;2023-05-09T07:59:14;101902.88;;;13.59;60.76
12213;BME280;6169;44.158;22.788;2023-05-09T08:04:19;101904.59;;;14.09;61.50
12213;BME280;6169;44.158;22.788;2023-05-09T08:09:21;101915.72;;;13.77;60.84
12213;BME280;6169;44.158;22.788;2023-05-09T08:14:23;101915.91;;;12.95;62.05
12213;BME280;6169;44.158;22.788;2023-05-09T08:19:27;101910.56;;;13.50;61.48
12213;BME280;6169;44.158;22.788;2023-05-09T08:24:29;101904.03;;;13.33;62.54
12213;BME280;6169;44.158;22.788;2023-05-09T08:29:32;101914.06;;;13.76;61.53
12213;BME280;6169;44.158;22.788;2023-05-09T08:34:35;101920.00;;;14.21;60.21
12213;BME280;6169;44.158;22.788;2023-05-09T08:39:37;101920.84;;;13.67;60.03
12213;BME280;6169;44.158;22.788;2023-05-09T08:44:40;101918.81;;;13.44;63.38
12213;BME280;6169;44.158;22.788;2023-05-09T08:49:43;101919.03;;;13.97;60.00
12213;BME280;6169;44.158;22.788;2023-05-09T08:54:46;101925.50;;;14.03;62.32
12213;BME280;6169;44.158;22.788;2023-05-09T08:59:48;101925.88;;;13.70;61.41
12213;BME280;6169;44.158;22.788;2023-05-09T09:04:54;101902.69;;;13.79;60.57
12213;BME280;6169;44.158;22.788;2023-05-09T09:09:56;101928.84;;;14.05;59.97
12213;BME280;6169;44.158;22.788;2023-05-09T09:15:03;101930.44;;;14.13;59.41
12213;BME280;6169;44.158;22.788;2023-05-09T09:20:09;101916.59;;;14.08;59.21
12213;BME280;6169;44.158;22.788;2023-05-09T09:25:12;101925.31;;;14.46;59.48
12213;BME280;6169;44.158;22.788;2023-05-09T09:30:15;101921.59;;;13.55;61.42
12213;BME280;6169;44.158;22.788;2023-05-09T09:35:19;101918.75;;;13.87;62.66
12213;BME280;6169;44.158;22.788;2023-05-09T09:40:23;101902.88;;;13.59;59.40
12213;BME280;6169;44.158;22.788;2023-05-09T09:45:26;101927.78;;;14.36;57.87
12213;BME280;6169;44.158;22.788;2023-05-09T09:50:30;101926.63;;;13.40;61.08
12213;BME280;6169;44.158;22.788;2023-05-09T09:55:33;101922.25;;;14.55;57.68
12213;BME280;6169;44.158;22.788;2023-05-09T10:00:36;101918.41;;;14.14;56.99
12213;BME280;6169;44.158;22.788;2023-05-09T10:05:40;101919.69;;;14.72;57.25
12213;BME280;6169;44.158;22.788;2023-05-09T10:10:42;101899.59;;;15.13;55.27
12213;BME280;6169;44.158;22.788;2023-05-09T10:15:44;101912.00;;;13.90;58.80
12213;BME280;6169;44.158;22.788;2023-05-09T10:20:49;101850.56;;;14.34;58.07
12213;BME280;6169;44.158;22.788;2023-05-09T10:25:57;101918.75;;;14.89;56.94
12213;BME280;6169;44.158;22.788;2023-05-09T10:31:06;101917.19;;;14.40;58.76
12213;BME280;6169;44.158;22.788;2023-05-09T10:36:12;101920.31;;;14.85;57.47
12213;BME280;6169;44.158;22.788;2023-05-09T10:41:16;101922.81;;;14.99;56.77
12213;BME280;6169;44.158;22.788;2023-05-09T10:46:19;101915.16;;;14.35;57.99
12213;BME280;6169;44.158;22.788;2023-05-09T10:51:24;101915.06;;;14.72;60.63
12213;BME280;6169;44.158;22.788;2023-05-09T10:56:29;101905.69;;;15.03;56.53
12213;BME280;6169;44.158;22.788;2023-05-09T11:01:32;101844.38;;;14.81;54.33
12213;BME280;6169;44.158;22.788;2023-05-09T11:06:44;101904.97;;;15.08;56.40
12213;BME280;6169;44.158;22.788;2023-05-09T11:11:51;101772.72;;;14.84;54.43
12213;BME280;6169;44.158;22.788;2023-05-09T11:16:57;101889.72;;;15.24;54.99
12213;BME280;6169;44.158;22.788;2023-05-09T11:22:10;101885.47;;;14.62;56.06
12213;BME280;6169;44.158;22.788;2023-05-09T11:27:18;101883.13;;;15.48;55.32
12213;BME280;6169;44.158;22.788;2023-05-09T11:32:21;101878.47;;;15.72;53.94
12213;BME280;6169;44.158;22.788;2023-05-09T11:37:30;101866.69;;;16.17;51.38
12213;BME280;6169;44.158;22.788;2023-05-09T11:42:32;101867.13;;;16.09;51.58
12213;BME280;6169;44.158;22.788;2023-05-09T11:47:34;101859.84;;;16.03;51.03
12213;BME280;6169;44.158;22.788;2023-05-09T11:52:39;101861.50;;;15.87;50.71
12213;BME280;6169;44.158;22.788;2023-05-09T11:57:43;101862.91;;;14.67;53.09
12213;BME280;6169;44.158;22.788;2023-05-09T12:02:46;101862.94;;;15.14;53.03
12213;BME280;6169;44.158;22.788;2023-05-09T12:07:51;101853.88;;;15.25;52.28
12213;BME280;6169;44.158;22.788;2023-05-09T12:12:53;101847.81;;;16.04;51.13
12213;BME280;6169;44.158;22.788;2023-05-09T12:18:03;101695.72;;;14.33;50.77
12213;BME280;6169;44.158;22.788;2023-05-09T12:23:08;101831.81;;;16.30;51.25
12213;BME280;6169;44.158;22.788;2023-05-09T12:28:11;101832.44;;;16.65;49.60
12213;BME280;6169;44.158;22.788;2023-05-09T12:33:14;101826.47;;;16.52;49.52
12213;BME280;6169;44.158;22.788;2023-05-09T12:38:21;101813.34;;;15.39;50.09
12213;BME280;6169;44.158;22.788;2023-05-09T12:43:24;101805.69;;;16.10;50.54
12213;BME280;6169;44.158;22.788;2023-05-09T12:48:26;101809.50;;;16.38;51.03
12213;BME280;6169;44.158;22.788;2023-05-09T12:53:30;101789.34;;;16.49;50.26
12213;BME280;6169;44.158;22.788;2023-05-09T12:58:33;101768.28;;;16.71;48.76
12213;BME280;6169;44.158;22.788;2023-05-09T13:03:35;101781.63;;;17.24;48.27
12213;BME280;6169;44.158;22.788;2023-05-09T13:08:41;101777.41;;;17.38;49.11
12213;BME280;6169;44.158;22.788;2023-05-09T13:13:43;101769.97;;;16.94;48.55
12213;BME280;6169;44.158;22.788;2023-05-09T13:18:45;101761.88;;;17.27;48.50
12213;BME280;6169;44.158;22.788;2023-05-09T13:23:49;101765.66;;;16.43;49.37
12213;BME280;6169;44.158;22.788;2023-05-09T13:28:51;101757.47;;;16.65;48.14
12213;BME280;6169;44.158;22.788;2023-05-09T13:33:54;101752.44;;;17.18;46.96
12213;BME280;6169;44.158;22.788;2023-05-09T13:38:57;101746.06;;;16.22;49.88
12213;BME280;6169;44.158;22.788;2023-05-09T13:43:59;101746.53;;;16.87;49.25
12213;BME280;6169;44.158;22.788;2023-05-09T13:49:02;101747.31;;;15.81;48.72
12213;BME280;6169;44.158;22.788;2023-05-09T13:54:05;101750.94;;;16.88;48.76
12213;BME280;6169;44.158;22.788;2023-05-09T13:59:12;101747.69;;;16.91;46.83
12213;BME280;6169;44.158;22.788;2023-05-09T14:04:14;101748.00;;;16.56;46.93
12213;BME280;6169;44.158;22.788;2023-05-09T14:09:18;101744.03;;;16.46;48.20
12213;BME280;6169;44.158;22.788;2023-05-09T14:14:22;101734.03;;;16.79;48.32
12213;BME280;6169;44.158;22.788;2023-05-09T14:19:25;101730.47;;;16.40;48.47
12213;BME280;6169;44.158;22.788;2023-05-09T14:24:29;101728.59;;;16.28;47.77
12213;BME280;6169;44.158;22.788;2023-05-09T14:29:32;101720.47;;;16.00;49.24
12213;BME280;6169;44.158;22.788;2023-05-09T14:34:36;101717.88;;;16.61;48.41
12213;BME280;6169;44.158;22.788;2023-05-09T14:39:40;101717.19;;;16.70;48.65
12213;BME280;6169;44.158;22.788;2023-05-09T14:44:43;101710.31;;;16.34;48.94
12213;BME280;6169;44.158;22.788;2023-05-09T14:49:46;101702.66;;;16.36;47.52
12213;BME280;6169;44.158;22.788;2023-05-09T14:54:50;101712.97;;;16.85;49.53
12213;BME280;6169;44.158;22.788;2023-05-09T14:59:52;101695.75;;;17.11;48.38
12213;BME280;6169;44.158;22.788;2023-05-09T15:04:55;101714.31;;;17.48;46.89
12213;BME280;6169;44.158;22.788;2023-05-09T15:09:58;101703.72;;;17.35;47.49
12213;BME280;6169;44.158;22.788;2023-05-09T15:15:11;101705.88;;;17.87;45.84
12213;BME280;6169;44.158;22.788;2023-05-09T15:20:15;101709.13;;;17.79;46.79
12213;BME280;6169;44.158;22.788;2023-05-09T15:25:20;101712.16;;;17.50;47.12
12213;BME280;6169;44.158;22.788;2023-05-09T15:30:23;101707.72;;;17.49;46.47
12213;BME280;6169;44.158;22.788;2023-05-09T15:35:26;101697.72;;;17.65;46.50
12213;BME280;6169;44.158;22.788;2023-05-09T15:40:30;101697.53;;;17.23;46.54
12213;BME280;6169;44.158;22.788;2023-05-09T15:45:32;101699.63;;;17.15;47.00
12213;BME280;6169;44.158;22.788;2023-05-09T15:50:34;101682.31;;;17.15;48.24
12213;BME280;6169;44.158;22.788;2023-05-09T15:55:38;101690.56;;;16.93;49.42
12213;BME280;6169;44.158;22.788;2023-05-09T16:00:40;101674.84;;;16.66;48.10
12213;BME280;6169;44.158;22.788;2023-05-09T16:05:42;101680.34;;;17.10;48.26
12213;BME280;6169;44.158;22.788;2023-05-09T16:10:46;101684.88;;;16.78;47.60
12213;BME280;6169;44.158;22.788;2023-05-09T16:15:48;101686.34;;;17.07;48.84
12213;BME280;6169;44.158;22.788;2023-05-09T16:20:51;101683.72;;;16.96;49.23
12213;BME280;6169;44.158;22.788;2023-05-09T16:25:54;101687.75;;;17.10;49.23
12213;BME280;6169;44.158;22.788;2023-05-09T16:30:57;101680.34;;;16.66;48.44
12213;BME280;6169;44.158;22.788;2023-05-09T16:36:00;101681.16;;;16.67;50.44
12213;BME280;6169;44.158;22.788;2023-05-09T16:41:04;101670.50;;;16.70;50.07
12213;BME280;6169;44.158;22.788;2023-05-09T16:46:06;101687.31;;;16.96;50.36
12213;BME280;6169;44.158;22.788;2023-05-09T16:51:08;101698.94;;;16.81;49.05
12213;BME280;6169;44.158;22.788;2023-05-09T16:56:12;101690.53;;;16.49;49.79
12213;BME280;6169;44.158;22.788;2023-05-09T17:01:14;101694.50;;;16.58;49.77
12213;BME280;6169;44.158;22.788;2023-05-09T17:06:16;101696.69;;;16.39;51.28
12213;BME280;6169;44.158;22.788;2023-05-09T17:11:21;101692.94;;;16.84;50.87
12213;BME280;6169;44.158;22.788;2023-05-09T17:16:23;101693.94;;;16.56;52.04
12213;BME280;6169;44.158;22.788;2023-05-09T17:21:25;101693.94;;;16.56;50.27
12213;BME280;6169;44.158;22.788;2023-05-09T17:26:30;101690.97;;;16.80;51.15
12213;BME280;6169;44.158;22.788;2023-05-09T17:31:32;101675.25;;;16.97;51.01
12213;BME280;6169;44.158;22.788;2023-05-09T17:36:34;101675.63;;;17.06;50.96
12213;BME280;6169;44.158;22.788;2023-05-09T17:41:38;101680.38;;;17.15;50.84
12213;BME280;6169;44.158;22.788;2023-05-09T17:46:41;101677.75;;;16.77;52.27
12213;BME280;6169;44.158;22.788;2023-05-09T17:51:44;101677.34;;;16.46;53.99
12213;BME280;6169;44.158;22.788;2023-05-09T17:56:47;101682.31;;;16.15;55.28
12213;BME280;6169;44.158;22.788;2023-05-09T18:01:50;101690.69;;;16.25;54.73
12213;BME280;6169;44.158;22.788;2023-05-09T18:06:53;101687.72;;;16.27;55.75
12213;BME280;6169;44.158;22.788;2023-05-09T18:11:58;101683.13;;;16.49;54.40
12213;BME280;6169;44.158;22.788;2023-05-09T18:17:00;101682.88;;;16.51;55.01
12213;BME280;6169;44.158;22.788;2023-05-09T18:22:02;101677.56;;;16.27;55.81
12213;BME280;6169;44.158;22.788;2023-05-09T18:27:07;101684.72;;;16.12;55.51
12213;BME280;6169;44.158;22.788;2023-05-09T18:32:10;101691.56;;;16.43;54.15
12213;BME280;6169;44.158;22.788;2023-05-09T18:37:13;101700.53;;;16.21;55.90
12213;BME280;6169;44.158;22.788;2023-05-09T18:42:18;101706.09;;;16.10;56.52
12213;BME280;6169;44.158;22.788;2023-05-09T18:47:21;101701.94;;;15.73;57.21
12213;BME280;6169;44.158;22.788;2023-05-09T18:52:24;101710.19;;;15.90;56.92
12213;BME280;6169;44.158;22.788;2023-05-09T18:57:28;101697.19;;;16.02;56.34
12213;BME280;6169;44.158;22.788;2023-05-09T19:02:30;101689.56;;;16.04;56.03
12213;BME280;6169;44.158;22.788;2023-05-09T19:07:33;101696.19;;;15.75;56.93
12213;BME280;6169;44.158;22.788;2023-05-09T19:12:37;101701.44;;;15.93;56.10
12213;BME280;6169;44.158;22.788;2023-05-09T19:17:39;101702.09;;;16.00;56.02
12213;BME280;6169;44.158;22.788;2023-05-09T19:22:41;101703.69;;;15.51;57.48
12213;BME280;6169;44.158;22.788;2023-05-09T19:27:49;101710.06;;;15.68;57.31
12213;BME280;6169;44.158;22.788;2023-05-09T19:32:52;101706.34;;;15.91;56.01
12213;BME280;6169;44.158;22.788;2023-05-09T19:37:54;101702.53;;;15.92;56.12
12213;BME280;6169;44.158;22.788;2023-05-09T19:42:58;101705.81;;;15.60;56.84
12213;BME280;6169;44.158;22.788;2023-05-09T19:48:00;101701.78;;;15.51;57.57
12213;BME280;6169;44.158;22.788;2023-05-09T19:53:02;101690.34;;;15.54;56.47
12213;BME280;6169;44.158;22.788;2023-05-09T19:58:06;101694.22;;;15.30;57.57
12213;BME280;6169;44.158;22.788;2023-05-09T20:03:09;101696.84;;;15.36;57.65
12213;BME280;6169;44.158;22.788;2023-05-09T20:08:11;101693.31;;;15.24;57.91
12213;BME280;6169;44.158;22.788;2023-05-09T20:13:14;101685.13;;;15.53;56.18
12213;BME280;6169;44.158;22.788;2023-05-09T20:18:17;101680.72;;;15.69;56.35
12213;BME280;6169;44.158;22.788;2023-05-09T20:23:19;101688.53;;;15.60;56.93
12213;BME280;6169;44.158;22.788;2023-05-09T20:28:23;101689.28;;;15.44;57.33
12213;BME280;6169;44.158;22.788;2023-05-09T20:33:25;101678.59;;;15.71;56.64
12213;BME280;6169;44.158;22.788;2023-05-09T20:38:27;101678.75;;;15.81;56.43
12213;BME280;6169;44.158;22.788;2023-05-09T20:43:31;101680.59;;;15.75;55.68
12213;BME280;6169;44.158;22.788;2023-05-09T20:48:34;101682.56;;;15.63;56.24
12213;BME280;6169;44.158;22.788;2023-05-09T20:53:36;101667.78;;;15.64;56.18
12213;BME280;6169;44.158;22.788;2023-05-09T20:58:39;101674.59;;;15.62;55.60
12213;BME280;6169;44.158;22.788;2023-05-09T21:03:42;101668.56;;;15.48;56.51
12213;BME280;6169;44.158;22.788;2023-05-09T21:08:44;101662.34;;;15.24;58.09
12213;BME280;6169;44.158;22.788;2023-05-09T21:13:48;101658.00;;;15.11;58.50
12213;BME280;6169;44.158;22.788;2023-05-09T21:18:50;101655.53;;;15.26;58.36
12213;BME280;6169;44.158;22.788;2023-05-09T21:23:52;101659.53;;;14.78;59.62
12213;BME280;6169;44.158;22.788;2023-05-09T21:28:56;101658.22;;;14.81;60.77
12213;BME280;6169;44.158;22.788;2023-05-09T21:33:58;101649.72;;;15.23;58.80
12213;BME280;6169;44.158;22.788;2023-05-09T21:39:00;101654.22;;;15.29;59.06
12213;BME280;6169;44.158;22.788;2023-05-09T21:44:10;101651.03;;;15.49;57.75
12213;BME280;6169;44.158;22.788;2023-05-09T21:49:12;101656.31;;;15.10;60.15
12213;BME280;6169;44.158;22.788;2023-05-09T21:54:16;101649.91;;;15.16;60.03
12213;BME280;6169;44.158;22.788;2023-05-09T21:59:21;101653.50;;;15.05;60.98
12213;BME280;6169;44.158;22.788;2023-05-09T22:04:23;101639.28;;;15.20;59.47
12213;BME280;6169;44.158;22.788;2023-05-09T22:09:26;101642.06;;;14.67;61.68
12213;BME280;6169;44.158;22.788;2023-05-09T22:14:30;101641.44;;;14.77;61.56
12213;BME280;6169;44.158;22.788;2023-05-09T22:19:33;101643.72;;;14.45;62.81
12213;BME280;6169;44.158;22.788;2023-05-09T22:24:35;101634.00;;;14.49;62.68
12213;BME280;6169;44.158;22.788;2023-05-09T22:29:42;101636.09;;;14.59;62.41
12213;BME280;6169;44.158;22.788;2023-05-09T22:34:45;101650.88;;;14.69;62.15
12213;BME280;6169;44.158;22.788;2023-05-09T22:39:48;101641.94;;;14.51;62.39
12213;BME280;6169;44.158;22.788;2023-05-09T22:44:52;101648.50;;;14.38;62.24
12213;BME280;6169;44.158;22.788;2023-05-09T22:49:54;101642.47;;;14.24;63.52
12213;BME280;6169;44.158;22.788;2023-05-09T22:54:56;101632.84;;;13.98;64.13
12213;BME280;6169;44.158;22.788;2023-05-09T23:00:00;101625.16;;;14.70;61.73
12213;BME280;6169;44.158;22.788;2023-05-09T23:05:02;101622.25;;;14.13;62.02
12213;BME280;6169;44.158;22.788;2023-05-09T23:10:06;101606.06;;;14.12;62.17
12213;BME280;6169;44.158;22.788;2023-05-09T23:15:10;101620.59;;;14.76;60.24
12213;BME280;6169;44.158;22.788;2023-05-09T23:20:12;101612.56;;;14.58;60.72
12213;BME280;6169;44.158;22.788;2023-05-09T23:25:15;101615.78;;;14.55;59.84
12213;BME280;6169;44.158;22.788;2023-05-09T23:30:18;101594.16;;;13.71;61.93
12213;BME280;6169;44.158;22.788;2023-05-09T23:35:21;101594.09;;;14.01;61.24
12213;BME280;6169;44.158;22.788;2023-05-09T23:40:23;101600.94;;;14.39;59.68
12213;BME280;6169;44.158;22.788;2023-05-09T23:45:26;101524.31;;;13.98;59.29
12213;BME280;6169;44.158;22.788;2023-05-09T23:50:29;101601.63;;;14.46;59.22
12213;BME280;6169;44.158;22.788;2023-05-09T23:55:31;101596.66;;;14.31;59.56
